sensor_id;sensor_type;location;lat;lon;timestamp;pressure;altitude;pressure_sealevel;temperature;humidity
17593;BME280;8915;51.760;14.300;2023-11-21T00:00:49;100288.84;;;8.05;100.00
17593;BME280;8915;51.760;14.300;2023-11-21T00:03:16;100295.97;;;8.05;100.00
17593;BME280;8915;51.760;14.300;2023-11-21T00:05:43;100285.75;;;8.03;100.00
17593;BME280;8915;51.760;14.300;2023-11-21T00:08:10;100287.63;;;8.03;100.00
17593;BME280;8915;51.760;14.300;2023-11-21T00:10:37;100285.31;;;8.01;100.00
17593;BME280;8915;51.760;14.300;2023-11-21T00:13:04;100285.63;;;8.00;100.00
17593;BME280;8915;51.760;14.300;2023-11-21T00:15:30;100289.34;;;7.99;100.00
17593;BME280;8915;51.760;14.300;2023-11-21T00:17:57;100286.72;;;7.99;100.00
17593;BME280;8915;51.760;14.300;2023-11-21T00:20:23;100290.44;;;7.98;100.00
17593;BME280;8915;51.760;14.300;2023-11-21T00:22:51;100286.28;;;7.97;100.00
17593;BME280;8915;51.760;14.300;2023-11-21T00:25:17;100292.28;;;7.97;100.00
17593;BME280;8915;51.760;14.300;2023-11-21T00:27:43;100282.84;;;7.96;100.00
17593;BME280;8915;51.760;14.300;2023-11-21T00:30:12;100283.63;;;7.97;100.00
17593;BME280;8915;51.760;14.300;2023-11-21T00:32:39;100288.91;;;7.97;100.00
17593;BME280;8915;51.760;14.300;2023-11-21T00:35:06;100291.53;;;7.97;100.00
17593;BME280;8915;51.760;14.300;2023-11-21T00:37:32;100288.13;;;7.96;100.00
17593;BME280;8915;51.760;14.300;2023-11-21T00:40:00;100288.13;;;7.96;100.00
17593;BME280;8915;51.760;14.300;2023-11-21T00:42:31;100297.53;;;7.97;100.00
17593;BME280;8915;51.760;14.300;2023-11-21T00:44:59;100288.91;;;7.97;100.00
17593;BME280;8915;51.760;14.300;2023-11-21T00:47:25;100297.53;;;7.97;100.00
17593;BME280;8915;51.760;14.300;2023-11-21T00:49:52;100293.81;;;7.98;100.00
17593;BME280;8915;51.760;14.300;2023-11-21T00:52:18;100297.22;;;7.99;100.00
17593;BME280;8915;51.760;14.300;2023-11-21T00:54:46;100298.75;;;8.00;100.00
17593;BME280;8915;51.760;14.300;2023-11-21T00:57:14;100299.56;;;8.00;100.00
17593;BME280;8915;51.760;14.300;2023-11-21T00:59:41;100306.34;;;8.01;100.00
17593;BME280;8915;51.760;14.300;2023-11-21T01:02:08;100308.97;;;8.01;100.00
17593;BME280;8915;51.760;14.300;2023-11-21T01:04:35;100311.59;;;8.01;100.00
17593;BME280;8915;51.760;14.300;2023-11-21T01:07:03;100306.03;;;8.03;100.00
17593;BME280;8915;51.760;14.300;2023-11-21T01:09:30;100315.78;;;8.02;100.00
17593;BME280;8915;51.760;14.300;2023-11-21T01:11:57;100315.78;;;8.02;100.00
17593;BME280;8915;51.760;14.300;2023-11-21T01:14:26;100313.94;;;8.03;100.00
17593;BME280;8915;51.760;14.300;2023-11-21T01:16:52;100319.50;;;8.01;100.00
17593;BME280;8915;51.760;14.300;2023-11-21T01:19:19;100316.09;;;8.01;100.00
17593;BME280;8915;51.760;14.300;2023-11-21T01:21:45;100322.44;;;8.00;100.00
17593;BME280;8915;51.760;14.300;2023-11-21T01:24:12;100321.69;;;7.99;100.00
17593;BME280;8915;51.760;14.300;2023-11-21T01:26:38;100322.75;;;7.98;100.00
17593;BME280;8915;51.760;14.300;2023-11-21T01:29:05;100318.56;;;7.97;100.00
17593;BME280;8915;51.760;14.300;2023-11-21T01:31:32;100330.97;;;7.97;100.00
17593;BME280;8915;51.760;14.300;2023-11-21T01:33:59;100321.50;;;7.96;100.00
17593;BME280;8915;51.760;14.300;2023-11-21T01:36:30;100322.28;;;7.96;100.00
17593;BME280;8915;51.760;14.300;2023-11-21T01:38:58;100329.41;;;7.96;100.00
17593;BME280;8915;51.760;14.300;2023-11-21T01:41:26;100325.22;;;7.95;100.00
17593;BME280;8915;51.760;14.300;2023-11-21T01:43:54;100319.97;;;7.95;100.00
17593;BME280;8915;51.760;14.300;2023-11-21T01:46:22;100324.13;;;7.96;100.00
17593;BME280;8915;51.760;14.300;2023-11-21T01:48:51;100327.09;;;7.94;100.00
17593;BME280;8915;51.760;14.300;2023-11-21T01:51:19;100326.00;;;7.95;100.00
17593;BME280;8915;51.760;14.300;2023-11-21T01:53:45;100336.53;;;7.95;100.00
17593;BME280;8915;51.760;14.300;2023-11-21T01:56:13;100330.47;;;7.95;100.00
17593;BME280;8915;51.760;14.300;2023-11-21T01:58:39;100335.75;;;7.95;100.00
17593;BME280;8915;51.760;14.300;2023-11-21T02:01:06;100341.78;;;7.95;100.00
17593;BME280;8915;51.760;14.300;2023-11-21T02:03:32;100337.63;;;7.94;100.00
17593;BME280;8915;51.760;14.300;2023-11-21T02:06:00;100339.16;;;7.95;100.00
17593;BME280;8915;51.760;14.300;2023-11-21T02:08:27;100340.25;;;7.94;100.00
17593;BME280;8915;51.760;14.300;2023-11-21T02:10:53;100339.47;;;7.94;100.00
17593;BME280;8915;51.760;14.300;2023-11-21T02:13:19;100340.56;;;7.93;100.00
17593;BME280;8915;51.760;14.300;2023-11-21T02:15:46;100337.13;;;7.92;100.00
17593;BME280;8915;51.760;14.300;2023-11-21T02:18:15;100345.34;;;7.91;100.00
17593;BME280;8915;51.760;14.300;2023-11-21T02:20:41;100342.72;;;7.91;100.00
17593;BME280;8915;51.760;14.300;2023-11-21T02:23:09;100353.56;;;7.89;100.00
17593;BME280;8915;51.760;14.300;2023-11-21T02:25:36;100343.03;;;7.89;100.00
17593;BME280;8915;51.760;14.300;2023-11-21T02:28:03;100358.03;;;7.89;100.00
17593;BME280;8915;51.760;14.300;2023-11-21T02:30:30;100345.19;;;7.87;100.00
17593;BME280;8915;51.760;14.300;2023-11-21T02:32:57;100348.59;;;7.88;100.00
17593;BME280;8915;51.760;14.300;2023-11-21T02:35:25;100347.81;;;7.87;100.00
17593;BME280;8915;51.760;14.300;2023-11-21T02:37:52;100340.72;;;7.88;100.00
17593;BME280;8915;51.760;14.300;2023-11-21T02:40:20;100345.97;;;7.88;100.00
17593;BME280;8915;51.760;14.300;2023-11-21T02:42:46;100348.91;;;7.86;100.00
17593;BME280;8915;51.760;14.300;2023-11-21T02:45:13;100344.75;;;7.85;100.00
17593;BME280;8915;51.760;14.300;2023-11-21T02:47:41;100338.69;;;7.85;100.00
17593;BME280;8915;51.760;14.300;2023-11-21T02:50:08;100348.47;;;7.84;100.00
17593;BME280;8915;51.760;14.300;2023-11-21T02:52:35;100342.41;;;7.84;100.00
17593;BME280;8915;51.760;14.300;2023-11-21T02:55:02;100341.63;;;7.83;100.00
17593;BME280;8915;51.760;14.300;2023-11-21T02:57:32;100340.88;;;7.83;100.00
17593;BME280;8915;51.760;14.300;2023-11-21T02:59:59;100343.81;;;7.81;100.00
17593;BME280;8915;51.760;14.300;2023-11-21T03:02:26;100346.44;;;7.81;100.00
17593;BME280;8915;51.760;14.300;2023-11-21T03:04:52;100344.13;;;7.80;100.00
17593;BME280;8915;51.760;14.300;2023-11-21T03:07:19;100343.38;;;7.79;100.00
17593;BME280;8915;51.760;14.300;2023-11-21T03:09:45;100340.75;;;7.79;100.00
17593;BME280;8915;51.760;14.300;2023-11-21T03:12:12;100348.94;;;7.78;100.00
17593;BME280;8915;51.760;14.300;2023-11-21T03:14:39;100349.72;;;7.78;100.00
17593;BME280;8915;51.760;14.300;2023-11-21T03:17:06;100347.38;;;7.77;100.00
17593;BME280;8915;51.760;14.300;2023-11-21T03:19:33;100354.50;;;7.76;100.00
17593;BME280;8915;51.760;14.300;2023-11-21T03:21:59;100344.28;;;7.75;100.00
17593;BME280;8915;51.760;14.300;2023-11-21T03:24:26;100346.91;;;7.75;100.00
17593;BME280;8915;51.760;14.300;2023-11-21T03:26:52;100354.03;;;7.74;100.00
17593;BME280;8915;51.760;14.300;2023-11-21T03:29:18;100354.78;;;7.75;100.00
17593;BME280;8915;51.760;14.300;2023-11-21T03:31:46;100353.25;;;7.74;100.00
17593;BME280;8915;51.760;14.300;2023-11-21T03:34:16;100352.50;;;7.73;100.00
17593;BME280;8915;51.760;14.300;2023-11-21T03:36:43;100350.94;;;7.72;100.00
17593;BME280;8915;51.760;14.300;2023-11-21T03:39:11;100353.91;;;7.71;100.00
17593;BME280;8915;51.760;14.300;2023-11-21T03:41:38;100361.00;;;7.70;100.00
17593;BME280;8915;51.760;14.300;2023-11-21T03:44:04;100363.94;;;7.69;100.00
17593;BME280;8915;51.760;14.300;2023-11-21T03:46:30;100364.72;;;7.69;100.00
17593;BME280;8915;51.760;14.300;2023-11-21T03:48:58;100356.03;;;7.69;100.00
17593;BME280;8915;51.760;14.300;2023-11-21T03:51:24;100365.81;;;7.68;100.00
17593;BME280;8915;51.760;14.300;2023-11-21T03:53:51;100359.75;;;7.68;100.00
17593;BME280;8915;51.760;14.300;2023-11-21T03:56:17;100365.03;;;7.68;100.00
17593;BME280;8915;51.760;14.300;2023-11-21T03:58:43;100360.06;;;7.66;100.00
17593;BME280;8915;51.760;14.300;2023-11-21T04:01:10;100365.31;;;7.66;100.00
17593;BME280;8915;51.760;14.300;2023-11-21T04:03:36;100375.84;;;7.66;100.00
17593;BME280;8915;51.760;14.300;2023-11-21T04:06:05;100374.00;;;7.67;100.00
17593;BME280;8915;51.760;14.300;2023-11-21T04:08:32;100375.84;;;7.66;100.00
17593;BME280;8915;51.760;14.300;2023-11-21T04:10:59;100378.47;;;7.66;100.00
17593;BME280;8915;51.760;14.300;2023-11-21T04:13:26;100379.25;;;7.67;100.00
17593;BME280;8915;51.760;14.300;2023-11-21T04:15:52;100379.25;;;7.67;100.00
17593;BME280;8915;51.760;14.300;2023-11-21T04:18:19;100375.09;;;7.66;100.00
17593;BME280;8915;51.760;14.300;2023-11-21T04:20:45;100375.84;;;7.66;100.00
17593;BME280;8915;51.760;14.300;2023-11-21T04:23:13;100378.94;;;7.68;100.00
17593;BME280;8915;51.760;14.300;2023-11-21T04:25:40;100381.88;;;7.67;100.00
17593;BME280;8915;51.760;14.300;2023-11-21T04:28:06;100387.88;;;7.67;100.00
17593;BME280;8915;51.760;14.300;2023-11-21T04:30:32;100385.25;;;7.67;100.00
17593;BME280;8915;51.760;14.300;2023-11-21T04:32:59;100392.84;;;7.69;100.00
17593;BME280;8915;51.760;14.300;2023-11-21T04:35:25;100392.84;;;7.69;100.00
17593;BME280;8915;51.760;14.300;2023-11-21T04:37:52;100398.88;;;7.69;100.00
17593;BME280;8915;51.760;14.300;2023-11-21T04:40:19;100398.09;;;7.69;100.00
17593;BME280;8915;51.760;14.300;2023-11-21T04:42:46;100403.03;;;7.70;100.00
17593;BME280;8915;51.760;14.300;2023-11-21T04:45:12;100403.03;;;7.70;100.00
17593;BME280;8915;51.760;14.300;2023-11-21T04:47:38;100411.72;;;7.71;100.00
17593;BME280;8915;51.760;14.300;2023-11-21T04:50:05;100406.47;;;7.71;100.00
17593;BME280;8915;51.760;14.300;2023-11-21T04:52:32;100416.97;;;7.71;100.00
17593;BME280;8915;51.760;14.300;2023-11-21T04:54:59;100410.94;;;7.70;100.00
17593;BME280;8915;51.760;14.300;2023-11-21T04:57:28;100409.09;;;7.71;100.00
17593;BME280;8915;51.760;14.300;2023-11-21T04:59:54;100409.84;;;7.71;100.00
17593;BME280;8915;51.760;14.300;2023-11-21T05:02:21;100409.09;;;7.71;100.00
17593;BME280;8915;51.760;14.300;2023-11-21T05:04:47;100419.59;;;7.71;100.00
17593;BME280;8915;51.760;14.300;2023-11-21T05:07:14;100419.25;;;7.72;100.00
17593;BME280;8915;51.760;14.300;2023-11-21T05:09:41;100433.19;;;7.73;100.00
17593;BME280;8915;51.760;14.300;2023-11-21T05:12:09;100426.69;;;7.70;100.00
17593;BME280;8915;51.760;14.300;2023-11-21T05:14:37;100441.53;;;7.66;100.00
17593;BME280;8915;51.760;14.300;2023-11-21T05:17:04;100445.09;;;7.62;100.00
17593;BME280;8915;51.760;14.300;2023-11-21T05:19:30;100450.81;;;7.55;100.00
17593;BME280;8915;51.760;14.300;2023-11-21T05:21:57;100453.44;;;7.47;100.00
17593;BME280;8915;51.760;14.300;2023-11-21T05:24:24;100459.28;;;7.44;100.00
17593;BME280;8915;51.760;14.300;2023-11-21T05:26:50;100461.28;;;7.38;100.00
17593;BME280;8915;51.760;14.300;2023-11-21T05:29:18;100456.19;;;7.33;100.00
17593;BME280;8915;51.760;14.300;2023-11-21T05:31:45;100462.34;;;7.29;100.00
17593;BME280;8915;51.760;14.300;2023-11-21T05:34:12;100469.59;;;7.23;100.00
17593;BME280;8915;51.760;14.300;2023-11-21T05:36:38;100475.00;;;7.18;100.00
17593;BME280;8915;51.760;14.300;2023-11-21T05:39:04;100472.38;;;7.18;100.00
17593;BME280;8915;51.760;14.300;2023-11-21T05:41:31;100476.69;;;7.14;100.00
17593;BME280;8915;51.760;14.300;2023-11-21T05:43:57;100470.47;;;7.10;100.00
17593;BME280;8915;51.760;14.300;2023-11-21T05:46:23;100475.56;;;7.07;100.00
17593;BME280;8915;51.760;14.300;2023-11-21T05:48:51;100482.50;;;7.03;100.00
17593;BME280;8915;51.760;14.300;2023-11-21T05:51:17;100476.13;;;6.95;100.00
17593;BME280;8915;51.760;14.300;2023-11-21T05:53:44;100485.22;;;6.89;100.00
17593;BME280;8915;51.760;14.300;2023-11-21T05:56:11;100491.53;;;6.80;100.00
17593;BME280;8915;51.760;14.300;2023-11-21T05:58:38;100488.88;;;6.71;100.00
17593;BME280;8915;51.760;14.300;2023-11-21T06:01:05;100495.63;;;6.64;100.00
17593;BME280;8915;51.760;14.300;2023-11-21T06:03:32;100503.44;;;6.55;100.00
17593;BME280;8915;51.760;14.300;2023-11-21T06:06:00;100505.41;;;6.50;100.00
17593;BME280;8915;51.760;14.300;2023-11-21T06:08:27;100503.69;;;6.45;100.00
17593;BME280;8915;51.760;14.300;2023-11-21T06:10:53;100513.81;;;6.38;100.00
17593;BME280;8915;51.760;14.300;2023-11-21T06:13:20;100507.94;;;6.33;100.00
17593;BME280;8915;51.760;14.300;2023-11-21T06:15:49;100520.69;;;6.26;100.00
17593;BME280;8915;51.760;14.300;2023-11-21T06:18:16;100514.00;;;6.20;100.00
17593;BME280;8915;51.760;14.300;2023-11-21T06:20:44;100535.56;;;6.17;100.00
17593;BME280;8915;51.760;14.300;2023-11-21T06:23:12;100539.69;;;6.09;100.00
17593;BME280;8915;51.760;14.300;2023-11-21T06:25:39;100549.50;;;6.04;100.00
17593;BME280;8915;51.760;14.300;2023-11-21T06:28:06;100550.84;;;6.01;100.00
17593;BME280;8915;51.760;14.300;2023-11-21T06:30:32;100550.66;;;5.98;100.00
17593;BME280;8915;51.760;14.300;2023-11-21T06:32:59;100568.53;;;5.96;100.00
17593;BME280;8915;51.760;14.300;2023-11-21T06:35:26;100558.94;;;5.91;100.00
17593;BME280;8915;51.760;14.300;2023-11-21T06:37:52;100570.78;;;5.89;100.00
17593;BME280;8915;51.760;14.300;2023-11-21T06:40:20;100568.75;;;5.86;100.00
17593;BME280;8915;51.760;14.300;2023-11-21T06:42:47;100570.41;;;5.82;100.00
17593;BME280;8915;51.760;14.300;2023-11-21T06:45:13;100573.81;;;5.82;100.00
17593;BME280;8915;51.760;14.300;2023-11-21T06:47:40;100573.56;;;5.79;100.00
17593;BME280;8915;51.760;14.300;2023-11-21T06:50:07;100571.84;;;5.74;100.00
17593;BME280;8915;51.760;14.300;2023-11-21T06:52:33;100584.16;;;5.74;100.00
17593;BME280;8915;51.760;14.300;2023-11-21T06:55:00;100578.44;;;5.72;100.00
17593;BME280;8915;51.760;14.300;2023-11-21T06:57:28;100583.97;;;5.70;100.00
17593;BME280;8915;51.760;14.300;2023-11-21T06:59:55;100591.06;;;5.70;100.00
17593;BME280;8915;51.760;14.300;2023-11-21T07:02:22;100597.66;;;5.67;100.00
17593;BME280;8915;51.760;14.300;2023-11-21T07:04:49;100596.59;;;5.68;100.00
17593;BME280;8915;51.760;14.300;2023-11-21T07:07:15;100597.66;;;5.67;100.00
17593;BME280;8915;51.760;14.300;2023-11-21T07:09:41;100603.97;;;5.66;100.00
17593;BME280;8915;51.760;14.300;2023-11-21T07:12:08;100603.47;;;5.64;100.00
17593;BME280;8915;51.760;14.300;2023-11-21T07:14:36;100609.00;;;5.63;100.00
17593;BME280;8915;51.760;14.300;2023-11-21T07:17:04;100621.16;;;5.59;100.00
17593;BME280;8915;51.760;14.300;2023-11-21T07:19:31;100620.19;;;5.55;100.00
17593;BME280;8915;51.760;14.300;2023-11-21T07:21:58;100619.97;;;5.51;100.00
17593;BME280;8915;51.760;14.300;2023-11-21T07:24:24;100623.97;;;5.49;100.00
17593;BME280;8915;51.760;14.300;2023-11-21T07:26:51;100624.81;;;5.44;100.00
17593;BME280;8915;51.760;14.300;2023-11-21T07:29:23;100623.75;;;5.45;100.00
17593;BME280;8915;51.760;14.300;2023-11-21T07:31:52;100624.81;;;5.44;100.00
17593;BME280;8915;51.760;14.300;2023-11-21T07:34:19;100628.78;;;5.42;100.00
17593;BME280;8915;51.760;14.300;2023-11-21T07:36:45;100642.94;;;5.41;100.00
17593;BME280;8915;51.760;14.300;2023-11-21T07:39:12;100634.91;;;5.37;100.00
17593;BME280;8915;51.760;14.300;2023-11-21T07:41:40;100634.41;;;5.35;100.00
17593;BME280;8915;51.760;14.300;2023-11-21T07:44:10;100649.63;;;5.33;100.00
17593;BME280;8915;51.760;14.300;2023-11-21T07:46:36;100648.88;;;5.33;100.00
17593;BME280;8915;51.760;14.300;2023-11-21T07:49:04;100648.88;;;5.33;100.00
17593;BME280;8915;51.760;14.300;2023-11-21T07:51:30;100654.88;;;5.33;100.00
17593;BME280;8915;51.760;14.300;2023-11-21T07:53:57;100655.66;;;5.34;100.00
17593;BME280;8915;51.760;14.300;2023-11-21T07:56:23;100650.50;;;5.29;100.00
17593;BME280;8915;51.760;14.300;2023-11-21T07:58:49;100659.13;;;5.29;100.00
17593;BME280;8915;51.760;14.300;2023-11-21T08:01:16;100663.09;;;5.27;100.00
17593;BME280;8915;51.760;14.300;2023-11-21T08:03:42;100662.41;;;5.21;100.00
17593;BME280;8915;51.760;14.300;2023-11-21T08:06:10;100678.41;;;5.20;100.00
17593;BME280;8915;51.760;14.300;2023-11-21T08:08:37;100672.69;;;5.18;100.00
17593;BME280;8915;51.760;14.300;2023-11-21T08:11:04;100682.44;;;5.12;100.00
17593;BME280;8915;51.760;14.300;2023-11-21T08:13:30;100673.84;;;5.12;100.00
17593;BME280;8915;51.760;14.300;2023-11-21T08:15:57;100678.09;;;5.08;100.00
17593;BME280;8915;51.760;14.300;2023-11-21T08:18:26;100697.25;;;5.03;100.00
17593;BME280;8915;51.760;14.300;2023-11-21T08:20:54;100694.13;;;5.01;100.00
17593;BME280;8915;51.760;14.300;2023-11-21T08:23:22;100693.94;;;4.98;100.00
17593;BME280;8915;51.760;14.300;2023-11-21T08:25:51;100703.63;;;4.97;100.00
17593;BME280;8915;51.760;14.300;2023-11-21T08:28:18;100700.00;;;4.93;100.00
17593;BME280;8915;51.760;14.300;2023-11-21T08:30:44;100696.34;;;4.94;100.00
17593;BME280;8915;51.760;14.300;2023-11-21T08:33:11;100704.69;;;4.96;100.00
17593;BME280;8915;51.760;14.300;2023-11-21T08:35:38;100707.56;;;4.95;100.00
17593;BME280;8915;51.760;14.300;2023-11-21T08:38:05;100706.81;;;4.94;100.00
17593;BME280;8915;51.760;14.300;2023-11-21T08:40:32;100705.75;;;4.95;100.00
17593;BME280;8915;51.760;14.300;2023-11-21T08:42:59;100712.53;;;4.96;100.00
17593;BME280;8915;51.760;14.300;2023-11-21T08:45:25;100710.19;;;4.95;100.00
17593;BME280;8915;51.760;14.300;2023-11-21T08:47:52;100710.47;;;4.93;100.00
17593;BME280;8915;51.760;14.300;2023-11-21T08:50:18;100705.25;;;4.93;100.00
17593;BME280;8915;51.760;14.300;2023-11-21T08:52:46;100704.97;;;4.95;100.00
17593;BME280;8915;51.760;14.300;2023-11-21T08:55:13;100712.34;;;4.93;100.00
17593;BME280;8915;51.760;14.300;2023-11-21T08:57:43;100702.34;;;4.95;100.00
17593;BME280;8915;51.760;14.300;2023-11-21T09:00:11;100711.75;;;4.96;100.00
17593;BME280;8915;51.760;14.300;2023-11-21T09:02:38;100703.91;;;4.96;100.00
17593;BME280;8915;51.760;14.300;2023-11-21T09:05:07;100715.16;;;4.96;100.00
17593;BME280;8915;51.760;14.300;2023-11-21T09:07:34;100725.13;;;4.94;100.00
17593;BME280;8915;51.760;14.300;2023-11-21T09:10:01;100720.19;;;4.93;100.00
17593;BME280;8915;51.760;14.300;2023-11-21T09:12:27;100723.06;;;4.91;100.00
17593;BME280;8915;51.760;14.300;2023-11-21T09:14:55;100726.47;;;4.92;100.00
17593;BME280;8915;51.760;14.300;2023-11-21T09:17:21;100734.31;;;4.92;100.00
17593;BME280;8915;51.760;14.300;2023-11-21T09:19:47;100732.47;;;4.92;100.00
17593;BME280;8915;51.760;14.300;2023-11-21T09:22:16;100741.13;;;4.93;100.00
17593;BME280;8915;51.760;14.300;2023-11-21T09:24:43;100745.28;;;4.94;100.00
17593;BME280;8915;51.760;14.300;2023-11-21T09:27:10;100754.19;;;4.93;100.00
17593;BME280;8915;51.760;14.300;2023-11-21T09:29:36;100744.78;;;4.92;100.00
17593;BME280;8915;51.760;14.300;2023-11-21T09:32:05;100754.47;;;4.91;100.00
17593;BME280;8915;51.760;14.300;2023-11-21T09:34:33;100755.53;;;4.90;100.00
17593;BME280;8915;51.760;14.300;2023-11-21T09:37:01;100756.28;;;4.91;100.00
17593;BME280;8915;51.760;14.300;2023-11-21T09:39:30;100759.69;;;4.91;100.00
17593;BME280;8915;51.760;14.300;2023-11-21T09:42:03;100756.59;;;4.89;100.00
17593;BME280;8915;51.760;14.300;2023-11-21T09:44:35;100755.53;;;4.90;100.00
17593;BME280;8915;51.760;14.300;2023-11-21T09:47:03;100761.84;;;4.89;100.00
17593;BME280;8915;51.760;14.300;2023-11-21T09:49:33;100758.50;;;4.84;100.00
17593;BME280;8915;51.760;14.300;2023-11-21T09:52:01;100765.56;;;4.83;100.00
17593;BME280;8915;51.760;14.300;2023-11-21T09:54:30;100766.94;;;4.81;100.00
17593;BME280;8915;51.760;14.300;2023-11-21T09:56:57;100773.19;;;4.80;100.00
17593;BME280;8915;51.760;14.300;2023-11-21T09:59:27;100767.22;;;4.79;100.00
17593;BME280;8915;51.760;14.300;2023-11-21T10:01:56;100772.72;;;4.78;100.00
17593;BME280;8915;51.760;14.300;2023-11-21T10:04:25;100768.53;;;4.77;100.00
17593;BME280;8915;51.760;14.300;2023-11-21T10:06:53;100772.50;;;4.74;100.00
17593;BME280;8915;51.760;14.300;2023-11-21T10:09:20;100777.72;;;4.74;100.00
17593;BME280;8915;51.760;14.300;2023-11-21T10:11:49;100769.09;;;4.74;100.00
17593;BME280;8915;51.760;14.300;2023-11-21T10:14:18;100769.63;;;4.76;100.00
17593;BME280;8915;51.760;14.300;2023-11-21T10:16:46;100780.84;;;4.76;100.00
17593;BME280;8915;51.760;14.300;2023-11-21T10:19:14;100785.31;;;4.76;100.00
17593;BME280;8915;51.760;14.300;2023-11-21T10:21:41;100786.66;;;4.73;100.00
17593;BME280;8915;51.760;14.300;2023-11-21T10:24:09;100788.97;;;4.75;100.00
17593;BME280;8915;51.760;14.300;2023-11-21T10:26:38;100794.19;;;4.75;100.00
17593;BME280;8915;51.760;14.300;2023-11-21T10:29:04;100796.81;;;4.75;100.00
17593;BME280;8915;51.760;14.300;2023-11-21T10:31:31;100802.34;;;4.73;100.00
17593;BME280;8915;51.760;14.300;2023-11-21T10:34:12;100801.00;;;4.76;100.00
17593;BME280;8915;51.760;14.300;2023-11-21T10:36:38;100802.03;;;4.75;100.00
17593;BME280;8915;51.760;14.300;2023-11-21T10:39:05;100802.03;;;4.75;100.00
17593;BME280;8915;51.760;14.300;2023-11-21T10:41:33;100802.81;;;4.75;100.00
17593;BME280;8915;51.760;14.300;2023-11-21T10:44:00;100809.13;;;4.74;100.00
17593;BME280;8915;51.760;14.300;2023-11-21T10:46:29;100809.41;;;4.73;100.00
17593;BME280;8915;51.760;14.300;2023-11-21T10:48:55;100811.22;;;4.72;100.00
17593;BME280;8915;51.760;14.300;2023-11-21T10:51:22;100814.63;;;4.73;100.00
17593;BME280;8915;51.760;14.300;2023-11-21T10:53:49;100820.94;;;4.72;100.00
17593;BME280;8915;51.760;14.300;2023-11-21T10:56:18;100825.63;;;4.70;100.00
17593;BME280;8915;51.760;14.300;2023-11-21T10:58:48;100822.75;;;4.71;100.00
17593;BME280;8915;51.760;14.300;2023-11-21T11:01:17;100824.09;;;4.69;100.00
17593;BME280;8915;51.760;14.300;2023-11-21T11:03:46;100815.19;;;4.70;100.00
17593;BME280;8915;51.760;14.300;2023-11-21T11:06:13;100823.03;;;4.70;100.00
17593;BME280;8915;51.760;14.300;2023-11-21T11:08:40;100820.13;;;4.71;100.00
17593;BME280;8915;51.760;14.300;2023-11-21T11:11:07;100826.91;;;4.72;100.00
17593;BME280;8915;51.760;14.300;2023-11-21T11:13:35;100831.59;;;4.75;100.00
17593;BME280;8915;51.760;14.300;2023-11-21T11:16:03;100829.78;;;4.76;100.00
17593;BME280;8915;51.760;14.300;2023-11-21T11:18:32;100825.81;;;4.78;100.00
17593;BME280;8915;51.760;14.300;2023-11-21T11:21:02;100831.06;;;4.78;100.00
17593;BME280;8915;51.760;14.300;2023-11-21T11:23:44;100838.38;;;4.76;100.00
17593;BME280;8915;51.760;14.300;2023-11-21T11:26:18;100831.59;;;4.75;100.00
17593;BME280;8915;51.760;14.300;2023-11-21T11:28:54;100835.28;;;4.74;100.00
17593;BME280;8915;51.760;14.300;2023-11-21T11:31:31;100838.66;;;4.75;100.00
17593;BME280;8915;51.760;14.300;2023-11-21T11:34:10;100839.72;;;4.74;100.00
17593;BME280;8915;51.760;14.300;2023-11-21T11:36:45;100842.34;;;4.74;100.00
17593;BME280;8915;51.760;14.300;2023-11-21T11:39:30;100849.13;;;4.75;100.00
17593;BME280;8915;51.760;14.300;2023-11-21T11:41:57;100855.13;;;4.75;100.00
17593;BME280;8915;51.760;14.300;2023-11-21T11:44:50;100856.41;;;4.78;100.00
17593;BME280;8915;51.760;14.300;2023-11-21T11:47:24;100851.19;;;4.78;100.00
17593;BME280;8915;51.760;14.300;2023-11-21T11:50:04;100859.53;;;4.80;100.00
17593;BME280;8915;51.760;14.300;2023-11-21T11:52:34;100866.34;;;4.81;100.00
17593;BME280;8915;51.760;14.300;2023-11-21T11:55:01;100866.81;;;4.83;100.00
17593;BME280;8915;51.760;14.300;2023-11-21T11:57:30;100861.31;;;4.84;100.00
17593;BME280;8915;51.760;14.300;2023-11-21T12:00:10;100874.09;;;4.86;100.00
17593;BME280;8915;51.760;14.300;2023-11-21T12:02:44;100879.06;;;4.87;100.00
17593;BME280;8915;51.760;14.300;2023-11-21T12:05:13;100870.72;;;4.85;100.00
17593;BME280;8915;51.760;14.300;2023-11-21T12:07:48;100873.81;;;4.87;100.00
17593;BME280;8915;51.760;14.300;2023-11-21T12:10:16;100879.34;;;4.86;100.00
17593;BME280;8915;51.760;14.300;2023-11-21T12:12:44;100879.34;;;4.86;100.00
17593;BME280;8915;51.760;14.300;2023-11-21T12:15:11;100884.06;;;4.84;100.00
17593;BME280;8915;51.760;14.300;2023-11-21T12:17:39;100878.06;;;4.83;100.00
17593;BME280;8915;51.760;14.300;2023-11-21T12:20:08;100880.41;;;4.85;100.00
17593;BME280;8915;51.760;14.300;2023-11-21T12:22:42;100887.75;;;4.83;100.00
17593;BME280;8915;51.760;14.300;2023-11-21T12:25:09;100893.75;;;4.83;100.00
17593;BME280;8915;51.760;14.300;2023-11-21T12:27:35;100891.22;;;4.78;100.00
17593;BME280;8915;51.760;14.300;2023-11-21T12:30:02;100892.50;;;4.81;100.00
17593;BME280;8915;51.760;14.300;2023-11-21T12:32:28;100900.34;;;4.81;100.00
17593;BME280;8915;51.760;14.300;2023-11-21T12:34:54;100906.91;;;4.78;100.00
17593;BME280;8915;51.760;14.300;2023-11-21T12:37:22;100901.97;;;4.77;100.00
17593;BME280;8915;51.760;14.300;2023-11-21T12:39:49;100909.00;;;4.76;100.00
17593;BME280;8915;51.760;14.300;2023-11-21T12:42:16;100902.28;;;4.70;100.00
17593;BME280;8915;51.760;14.300;2023-11-21T12:44:42;100921.66;;;4.69;100.00
17593;BME280;8915;51.760;14.300;2023-11-21T12:47:16;100924.59;;;4.63;100.00
17593;BME280;8915;51.760;14.300;2023-11-21T12:49:43;100931.94;;;4.61;100.00
17593;BME280;8915;51.760;14.300;2023-11-21T12:52:10;100927.53;;;4.56;100.00